sensor_id;sensor_type;location;lat;lon;timestamp;P1;durP1;ratioP1;P2;durP2;ratioP2
76196;SDS011;64974;53.144;17.962;2022-11-15T04:01:22;78.93;;;24.13;;
76196;SDS011;64974;53.144;17.962;2022-11-15T04:03:47;80.43;;;23.63;;
76196;SDS011;64974;53.144;17.962;2022-11-15T04:06:13;77.60;;;23.10;;
76196;SDS011;64974;53.144;17.962;2022-11-15T04:08:38;81.38;;;24.48;;
76196;SDS011;64974;53.144;17.962;2022-11-15T04:11:03;69.85;;;21.95;;
76196;SDS011;64974;53.144;17.962;2022-11-15T04:13:29;61.67;;;21.00;;
76196;SDS011;64974;53.144;17.962;2022-11-15T04:15:54;57.30;;;18.27;;
76196;SDS011;64974;53.144;17.962;2022-11-15T04:18:20;62.40;;;18.90;;
76196;SDS011;64974;53.144;17.962;2022-11-15T04:20:45;64.80;;;22.48;;
76196;SDS011;64974;53.144;17.962;2022-11-15T04:23:29;60.00;;;20.75;;
76196;SDS011;64974;53.144;17.962;2022-11-15T04:26:24;56.92;;;20.13;;
76196;SDS011;64974;53.144;17.962;2022-11-15T04:28:49;57.85;;;19.10;;
76196;SDS011;64974;53.144;17.962;2022-11-15T04:31:33;64.80;;;18.65;;
76196;SDS011;64974;53.144;17.962;2022-11-15T04:33:59;49.92;;;18.80;;
76196;SDS011;64974;53.144;17.962;2022-11-15T04:36:25;61.45;;;19.23;;
76196;SDS011;64974;53.144;17.962;2022-11-15T04:39:09;59.45;;;18.13;;
76196;SDS011;64974;53.144;17.962;2022-11-15T04:41:35;67.15;;;19.63;;
76196;SDS011;64974;53.144;17.962;2022-11-15T04:44:00;60.70;;;19.17;;
76196;SDS011;64974;53.144;17.962;2022-11-15T04:46:26;62.95;;;21.15;;
76196;SDS011;64974;53.144;17.962;2022-11-15T04:48:52;69.60;;;21.10;;
76196;SDS011;64974;53.144;17.962;2022-11-15T04:51:17;67.93;;;20.05;;
76196;SDS011;64974;53.144;17.962;2022-11-15T04:53:43;61.08;;;19.25;;
76196;SDS011;64974;53.144;17.962;2022-11-15T04:56:08;58.15;;;21.27;;
76196;SDS011;64974;53.144;17.962;2022-11-15T04:58:34;70.30;;;19.50;;
76196;SDS011;64974;53.144;17.962;2022-11-15T05:01:20;57.95;;;19.15;;
76196;SDS011;64974;53.144;17.962;2022-11-15T05:03:46;59.67;;;18.80;;
76196;SDS011;64974;53.144;17.962;2022-11-15T05:06:30;62.97;;;18.95;;
76196;SDS011;64974;53.144;17.962;2022-11-15T05:08:56;58.63;;;18.55;;
76196;SDS011;64974;53.144;17.962;2022-11-15T05:11:21;60.80;;;18.95;;
76196;SDS011;64974;53.144;17.962;2022-11-15T05:13:47;60.90;;;17.90;;
76196;SDS011;64974;53.144;17.962;2022-11-15T05:16:16;61.80;;;17.40;;
76196;SDS011;64974;53.144;17.962;2022-11-15T05:18:41;62.05;;;21.20;;
76196;SDS011;64974;53.144;17.962;2022-11-15T05:21:11;66.55;;;20.17;;
76196;SDS011;64974;53.144;17.962;2022-11-15T05:23:38;58.83;;;18.63;;
76196;SDS011;64974;53.144;17.962;2022-11-15T05:26:04;60.75;;;19.27;;
76196;SDS011;64974;53.144;17.962;2022-11-15T05:28:31;67.78;;;22.20;;
76196;SDS011;64974;53.144;17.962;2022-11-15T05:31:30;61.92;;;20.38;;
76196;SDS011;64974;53.144;17.962;2022-11-15T05:33:49;61.65;;;17.35;;
76196;SDS011;64974;53.144;17.962;2022-11-15T05:38:57;57.20;;;19.35;;
76196;SDS011;64974;53.144;17.962;2022-11-15T05:41:25;51.15;;;18.77;;
76196;SDS011;64974;53.144;17.962;2022-11-15T05:43:53;63.45;;;18.75;;
76196;SDS011;64974;53.144;17.962;2022-11-15T05:46:18;67.82;;;20.92;;
76196;SDS011;64974;53.144;17.962;2022-11-15T05:48:45;67.72;;;20.17;;
76196;SDS011;64974;53.144;17.962;2022-11-15T05:51:13;72.50;;;23.90;;
76196;SDS011;64974;53.144;17.962;2022-11-15T05:53:40;69.72;;;21.45;;
76196;SDS011;64974;53.144;17.962;2022-11-15T05:56:05;71.78;;;21.70;;
76196;SDS011;64974;53.144;17.962;2022-11-15T05:58:34;66.55;;;22.90;;
76196;SDS011;64974;53.144;17.962;2022-11-15T06:00:59;53.45;;;18.85;;
76196;SDS011;64974;53.144;17.962;2022-11-15T06:03:25;51.88;;;18.98;;
76196;SDS011;64974;53.144;17.962;2022-11-15T06:05:53;63.58;;;18.90;;
76196;SDS011;64974;53.144;17.962;2022-11-15T06:08:18;55.55;;;18.05;;
76196;SDS011;64974;53.144;17.962;2022-11-15T06:10:44;63.60;;;21.10;;
76196;SDS011;64974;53.144;17.962;2022-11-15T06:13:09;69.60;;;20.02;;
76196;SDS011;64974;53.144;17.962;2022-11-15T06:15:34;54.42;;;18.40;;
76196;SDS011;64974;53.144;17.962;2022-11-15T06:18:00;73.22;;;20.77;;
76196;SDS011;64974;53.144;17.962;2022-11-15T06:20:26;64.53;;;19.98;;
76196;SDS011;64974;53.144;17.962;2022-11-15T06:23:00;60.92;;;19.42;;
76196;SDS011;64974;53.144;17.962;2022-11-15T06:25:27;83.80;;;23.70;;
76196;SDS011;64974;53.144;17.962;2022-11-15T06:27:53;71.40;;;22.10;;
76196;SDS011;64974;53.144;17.962;2022-11-15T06:30:19;72.43;;;22.00;;
76196;SDS011;64974;53.144;17.962;2022-11-15T06:32:45;68.20;;;20.85;;
76196;SDS011;64974;53.144;17.962;2022-11-15T06:35:13;57.30;;;19.40;;
76196;SDS011;64974;53.144;17.962;2022-11-15T06:37:39;57.53;;;20.02;;
76196;SDS011;64974;53.144;17.962;2022-11-15T06:40:05;62.88;;;18.73;;
76196;SDS011;64974;53.144;17.962;2022-11-15T06:42:30;57.33;;;19.38;;
76196;SDS011;64974;53.144;17.962;2022-11-15T06:44:56;65.57;;;20.20;;
76196;SDS011;64974;53.144;17.962;2022-11-15T06:47:21;59.05;;;19.92;;
76196;SDS011;64974;53.144;17.962;2022-11-15T06:49:47;63.22;;;20.33;;
76196;SDS011;64974;53.144;17.962;2022-11-15T06:52:12;57.35;;;19.33;;
76196;SDS011;64974;53.144;17.962;2022-11-15T06:54:37;59.90;;;21.08;;
76196;SDS011;64974;53.144;17.962;2022-11-15T06:57:03;60.10;;;22.00;;
76196;SDS011;64974;53.144;17.962;2022-11-15T06:59:29;57.65;;;21.58;;
76196;SDS011;64974;53.144;17.962;2022-11-15T07:01:54;63.47;;;21.55;;
76196;SDS011;64974;53.144;17.962;2022-11-15T07:04:20;55.45;;;20.52;;
76196;SDS011;64974;53.144;17.962;2022-11-15T07:06:46;62.83;;;19.67;;
76196;SDS011;64974;53.144;17.962;2022-11-15T07:09:12;58.40;;;18.33;;
76196;SDS011;64974;53.144;17.962;2022-11-15T07:11:38;54.45;;;19.38;;
76196;SDS011;64974;53.144;17.962;2022-11-15T07:14:03;56.08;;;18.90;;
76196;SDS011;64974;53.144;17.962;2022-11-15T07:16:28;60.50;;;17.88;;
76196;SDS011;64974;53.144;17.962;2022-11-15T07:18:54;62.55;;;19.23;;
76196;SDS011;64974;53.144;17.962;2022-11-15T07:21:19;61.58;;;19.10;;
76196;SDS011;64974;53.144;17.962;2022-11-15T07:23:44;61.22;;;18.42;;
76196;SDS011;64974;53.144;17.962;2022-11-15T07:26:10;61.13;;;19.90;;
76196;SDS011;64974;53.144;17.962;2022-11-15T07:28:35;55.80;;;17.13;;
76196;SDS011;64974;53.144;17.962;2022-11-15T07:31:05;54.78;;;18.52;;
76196;SDS011;64974;53.144;17.962;2022-11-15T07:33:31;50.00;;;16.35;;
76196;SDS011;64974;53.144;17.962;2022-11-15T07:36:04;56.50;;;17.80;;
76196;SDS011;64974;53.144;17.962;2022-11-15T07:38:36;55.97;;;17.40;;
76196;SDS011;64974;53.144;17.962;2022-11-15T07:41:02;59.72;;;18.48;;
76196;SDS011;64974;53.144;17.962;2022-11-15T07:43:30;59.85;;;20.75;;
76196;SDS011;64974;53.144;17.962;2022-11-15T07:45:57;53.90;;;18.10;;
76196;SDS011;64974;53.144;17.962;2022-11-15T07:48:23;58.63;;;19.10;;
76196;SDS011;64974;53.144;17.962;2022-11-15T07:50:49;55.10;;;20.48;;
76196;SDS011;64974;53.144;17.962;2022-11-15T07:53:14;48.40;;;16.48;;
76196;SDS011;64974;53.144;17.962;2022-11-15T07:55:40;50.33;;;17.65;;
76196;SDS011;64974;53.144;17.962;2022-11-15T07:58:07;47.85;;;16.17;;
76196;SDS011;64974;53.144;17.962;2022-11-15T08:00:34;53.35;;;18.00;;
76196;SDS011;64974;53.144;17.962;2022-11-15T08:03:08;44.65;;;18.10;;
76196;SDS011;64974;53.144;17.962;2022-11-15T08:05:34;54.92;;;17.75;;
76196;SDS011;64974;53.144;17.962;2022-11-15T08:08:00;55.08;;;17.52;;
76196;SDS011;64974;53.144;17.962;2022-11-15T08:10:26;53.10;;;18.17;;
76196;SDS011;64974;53.144;17.962;2022-11-15T08:15:28;45.72;;;15.63;;
76196;SDS011;64974;53.144;17.962;2022-11-15T08:17:56;53.70;;;18.58;;
76196;SDS011;64974;53.144;17.962;2022-11-15T08:20:23;48.50;;;17.88;;
76196;SDS011;64974;53.144;17.962;2022-11-15T08:22:49;50.38;;;17.33;;
76196;SDS011;64974;53.144;17.962;2022-11-15T08:25:15;53.75;;;17.60;;
76196;SDS011;64974;53.144;17.962;2022-11-15T08:27:41;58.20;;;18.98;;
76196;SDS011;64974;53.144;17.962;2022-11-15T08:30:06;55.60;;;19.08;;
76196;SDS011;64974;53.144;17.962;2022-11-15T08:32:32;50.13;;;19.02;;
76196;SDS011;64974;53.144;17.962;2022-11-15T08:34:57;53.55;;;20.75;;
76196;SDS011;64974;53.144;17.962;2022-11-15T08:37:23;50.45;;;17.45;;
76196;SDS011;64974;53.144;17.962;2022-11-15T08:39:48;54.20;;;19.50;;
76196;SDS011;64974;53.144;17.962;2022-11-15T08:42:14;50.58;;;16.42;;
76196;SDS011;64974;53.144;17.962;2022-11-15T08:44:41;53.65;;;18.83;;
76196;SDS011;64974;53.144;17.962;2022-11-15T08:47:06;57.88;;;17.63;;
76196;SDS011;64974;53.144;17.962;2022-11-15T08:49:32;50.58;;;19.08;;
76196;SDS011;64974;53.144;17.962;2022-11-15T08:51:57;64.70;;;21.15;;
76196;SDS011;64974;53.144;17.962;2022-11-15T08:54:23;54.10;;;21.27;;
76196;SDS011;64974;53.144;17.962;2022-11-15T08:56:48;52.28;;;19.13;;
76196;SDS011;64974;53.144;17.962;2022-11-15T08:59:13;48.58;;;17.60;;
76196;SDS011;64974;53.144;17.962;2022-11-15T09:01:39;47.75;;;17.83;;
76196;SDS011;64974;53.144;17.962;2022-11-15T09:04:04;44.60;;;16.63;;
76196;SDS011;64974;53.144;17.962;2022-11-15T09:06:30;48.13;;;17.92;;
76196;SDS011;64974;53.144;17.962;2022-11-15T09:08:56;47.28;;;17.27;;
76196;SDS011;64974;53.144;17.962;2022-11-15T09:11:21;42.65;;;16.70;;
76196;SDS011;64974;53.144;17.962;2022-11-15T09:13:48;47.83;;;17.08;;
76196;SDS011;64974;53.144;17.962;2022-11-15T09:16:13;53.20;;;17.90;;
76196;SDS011;64974;53.144;17.962;2022-11-15T09:18:40;51.33;;;17.65;;
76196;SDS011;64974;53.144;17.962;2022-11-15T09:21:06;46.80;;;19.27;;
76196;SDS011;64974;53.144;17.962;2022-11-15T09:23:31;53.80;;;18.00;;
76196;SDS011;64974;53.144;17.962;2022-11-15T09:26:00;53.00;;;16.77;;
76196;SDS011;64974;53.144;17.962;2022-11-15T09:28:27;59.63;;;19.77;;
76196;SDS011;64974;53.144;17.962;2022-11-15T09:31:00;52.65;;;18.40;;
76196;SDS011;64974;53.144;17.962;2022-11-15T09:33:27;59.17;;;19.65;;
76196;SDS011;64974;53.144;17.962;2022-11-15T09:35:53;67.75;;;19.35;;
76196;SDS011;64974;53.144;17.962;2022-11-15T09:38:18;54.72;;;19.27;;
76196;SDS011;64974;53.144;17.962;2022-11-15T09:40:44;59.80;;;21.63;;
76196;SDS011;64974;53.144;17.962;2022-11-15T09:48:53;56.25;;;20.17;;
76196;SDS011;64974;53.144;17.962;2022-11-15T09:56:48;46.28;;;18.27;;
76196;SDS011;64974;53.144;17.962;2022-11-15T10:04:25;51.03;;;17.48;;
76196;SDS011;64974;53.144;17.962;2022-11-15T10:06:58;50.33;;;18.10;;
76196;SDS011;64974;53.144;17.962;2022-11-15T10:12:16;48.10;;;16.45;;
76196;SDS011;64974;53.144;17.962;2022-11-15T10:14:42;53.13;;;17.67;;
76196;SDS011;64974;53.144;17.962;2022-11-15T10:20:10;42.80;;;16.42;;
76196;SDS011;64974;53.144;17.962;2022-11-15T10:22:46;45.83;;;16.58;;
76196;SDS011;64974;53.144;17.962;2022-11-15T10:25:21;44.75;;;16.25;;
76196;SDS011;64974;53.144;17.962;2022-11-15T10:30:45;43.60;;;15.13;;
76196;SDS011;64974;53.144;17.962;2022-11-15T10:33:33;45.13;;;16.73;;
76196;SDS011;64974;53.144;17.962;2022-11-15T10:38:33;42.13;;;15.10;;
76196;SDS011;64974;53.144;17.962;2022-11-15T10:41:06;40.33;;;15.65;;
76196;SDS011;64974;53.144;17.962;2022-11-15T10:43:32;42.72;;;14.77;;
76196;SDS011;64974;53.144;17.962;2022-11-15T10:45:57;42.45;;;17.00;;
76196;SDS011;64974;53.144;17.962;2022-11-15T10:48:44;48.78;;;18.50;;
76196;SDS011;64974;53.144;17.962;2022-11-15T10:51:18;51.58;;;17.65;;
76196;SDS011;64974;53.144;17.962;2022-11-15T10:53:47;57.28;;;18.40;;
76196;SDS011;64974;53.144;17.962;2022-11-15T10:56:13;56.65;;;20.77;;
76196;SDS011;64974;53.144;17.962;2022-11-15T10:58:44;52.30;;;18.75;;
76196;SDS011;64974;53.144;17.962;2022-11-15T11:01:17;49.80;;;19.48;;
76196;SDS011;64974;53.144;17.962;2022-11-15T11:03:45;51.80;;;21.38;;
76196;SDS011;64974;53.144;17.962;2022-11-15T11:09:27;51.00;;;17.55;;
76196;SDS011;64974;53.144;17.962;2022-11-15T11:11:56;47.75;;;18.25;;
76196;SDS011;64974;53.144;17.962;2022-11-15T11:14:25;57.15;;;20.70;;
76196;SDS011;64974;53.144;17.962;2022-11-15T11:33:22;47.65;;;18.23;;
76196;SDS011;64974;53.144;17.962;2022-11-15T11:44:15;54.72;;;19.13;;
76196;SDS011;64974;53.144;17.962;2022-11-15T11:46:59;55.97;;;21.90;;
76196;SDS011;64974;53.144;17.962;2022-11-15T11:49:41;42.50;;;17.08;;
76196;SDS011;64974;53.144;17.962;2022-11-15T11:52:18;46.13;;;17.63;;
76196;SDS011;64974;53.144;17.962;2022-11-15T11:57:50;50.90;;;17.58;;
76196;SDS011;64974;53.144;17.962;2022-11-15T12:00:28;49.15;;;17.23;;
76196;SDS011;64974;53.144;17.962;2022-11-15T12:05:39;46.83;;;19.17;;
76196;SDS011;64974;53.144;17.962;2022-11-15T12:11:01;46.90;;;18.10;;
76196;SDS011;64974;53.144;17.962;2022-11-15T12:13:38;52.97;;;18.95;;
76196;SDS011;64974;53.144;17.962;2022-11-15T12:18:44;50.40;;;19.98;;
76196;SDS011;64974;53.144;17.962;2022-11-15T12:21:13;56.92;;;22.13;;
76196;SDS011;64974;53.144;17.962;2022-11-15T12:23:48;52.35;;;20.60;;
76196;SDS011;64974;53.144;17.962;2022-11-15T12:26:17;58.30;;;22.98;;
76196;SDS011;64974;53.144;17.962;2022-11-15T12:28:47;48.65;;;20.10;;
76196;SDS011;64974;53.144;17.962;2022-11-15T12:31:19;49.17;;;20.48;;
76196;SDS011;64974;53.144;17.962;2022-11-15T12:33:48;58.20;;;24.10;;
76196;SDS011;64974;53.144;17.962;2022-11-15T12:38:56;52.88;;;19.88;;
76196;SDS011;64974;53.144;17.962;2022-11-15T12:41:31;53.70;;;22.10;;
76196;SDS011;64974;53.144;17.962;2022-11-15T12:44:05;48.40;;;18.40;;
76196;SDS011;64974;53.144;17.962;2022-11-15T12:49:11;47.92;;;18.83;;
76196;SDS011;64974;53.144;17.962;2022-11-15T12:59:52;50.30;;;18.17;;
76196;SDS011;64974;53.144;17.962;2022-11-15T13:02:33;56.97;;;21.67;;
76196;SDS011;64974;53.144;17.962;2022-11-15T13:12:55;52.78;;;21.75;;
76196;SDS011;64974;53.144;17.962;2022-11-15T13:15:31;58.92;;;21.75;;
76196;SDS011;64974;53.144;17.962;2022-11-15T13:18:50;55.35;;;20.42;;
76196;SDS011;64974;53.144;17.962;2022-11-15T13:20:52;65.05;;;22.42;;
76196;SDS011;64974;53.144;17.962;2022-11-15T13:23:17;61.38;;;23.83;;
76196;SDS011;64974;53.144;17.962;2022-11-15T13:28:34;71.28;;;25.48;;
76196;SDS011;64974;53.144;17.962;2022-11-15T13:31:24;78.68;;;27.23;;
76196;SDS011;64974;53.144;17.962;2022-11-15T13:33:52;77.80;;;25.27;;
76196;SDS011;64974;53.144;17.962;2022-11-15T13:41:31;67.20;;;25.30;;
76196;SDS011;64974;53.144;17.962;2022-11-15T13:43:58;66.20;;;24.73;;
76196;SDS011;64974;53.144;17.962;2022-11-15T13:46:26;77.55;;;27.40;;
76196;SDS011;64974;53.144;17.962;2022-11-15T13:48:57;73.53;;;24.90;;
76196;SDS011;64974;53.144;17.962;2022-11-15T13:59:52;70.13;;;22.90;;
76196;SDS011;64974;53.144;17.962;2022-11-15T14:02:21;67.78;;;22.83;;
76196;SDS011;64974;53.144;17.962;2022-11-15T14:04:51;77.82;;;25.02;;
76196;SDS011;64974;53.144;17.962;2022-11-15T14:07:20;63.90;;;22.00;;
76196;SDS011;64974;53.144;17.962;2022-11-15T14:09:47;73.93;;;26.95;;
76196;SDS011;64974;53.144;17.962;2022-11-15T14:12:32;76.57;;;24.35;;
76196;SDS011;64974;53.144;17.962;2022-11-15T14:14:59;64.15;;;21.75;;
76196;SDS011;64974;53.144;17.962;2022-11-15T14:19:55;64.18;;;21.90;;
76196;SDS011;64974;53.144;17.962;2022-11-15T14:27:42;70.53;;;23.25;;
76196;SDS011;64974;53.144;17.962;2022-11-15T14:30:16;73.88;;;23.63;;
76196;SDS011;64974;53.144;17.962;2022-11-15T14:32:45;75.78;;;22.45;;
76196;SDS011;64974;53.144;17.962;2022-11-15T14:35:17;69.72;;;21.33;;
76196;SDS011;64974;53.144;17.962;2022-11-15T14:37:44;66.20;;;21.77;;
76196;SDS011;64974;53.144;17.962;2022-11-15T14:40:11;59.95;;;20.77;;
76196;SDS011;64974;53.144;17.962;2022-11-15T14:42:38;65.10;;;21.02;;
76196;SDS011;64974;53.144;17.962;2022-11-15T14:45:09;65.50;;;23.77;;
76196;SDS011;64974;53.144;17.962;2022-11-15T14:47:40;64.38;;;23.35;;
76196;SDS011;64974;53.144;17.962;2022-11-15T14:50:05;66.13;;;24.73;;
76196;SDS011;64974;53.144;17.962;2022-11-15T14:52:32;66.07;;;22.70;;
76196;SDS011;64974;53.144;17.962;2022-11-15T14:55:02;64.13;;;21.83;;
76196;SDS011;64974;53.144;17.962;2022-11-15T14:57:28;59.88;;;21.00;;
76196;SDS011;64974;53.144;17.962;2022-11-15T14:59:54;55.53;;;20.05;;
76196;SDS011;64974;53.144;17.962;2022-11-15T15:02:20;50.75;;;19.33;;
76196;SDS011;64974;53.144;17.962;2022-11-15T15:04:47;47.83;;;17.17;;
76196;SDS011;64974;53.144;17.962;2022-11-15T15:07:13;48.42;;;16.05;;
76196;SDS011;64974;53.144;17.962;2022-11-15T15:09:38;55.58;;;17.10;;
76196;SDS011;64974;53.144;17.962;2022-11-15T15:12:05;56.13;;;18.42;;
76196;SDS011;64974;53.144;17.962;2022-11-15T15:14:36;56.28;;;18.13;;
76196;SDS011;64974;53.144;17.962;2022-11-15T15:17:01;55.80;;;17.05;;
76196;SDS011;64974;53.144;17.962;2022-11-15T15:19:27;55.70;;;19.50;;
76196;SDS011;64974;53.144;17.962;2022-11-15T15:21:52;61.33;;;20.95;;
76196;SDS011;64974;53.144;17.962;2022-11-15T15:24:18;55.25;;;20.27;;
76196;SDS011;64974;53.144;17.962;2022-11-15T15:26:43;52.63;;;19.50;;
76196;SDS011;64974;53.144;17.962;2022-11-15T15:29:09;55.58;;;18.63;;
76196;SDS011;64974;53.144;17.962;2022-11-15T15:31:34;51.88;;;18.63;;
76196;SDS011;64974;53.144;17.962;2022-11-15T15:34:00;53.72;;;18.60;;
76196;SDS011;64974;53.144;17.962;2022-11-15T15:36:26;52.97;;;18.02;;
76196;SDS011;64974;53.144;17.962;2022-11-15T15:38:51;55.17;;;16.50;;
76196;SDS011;64974;53.144;17.962;2022-11-15T15:41:17;52.92;;;18.75;;
76196;SDS011;64974;53.144;17.962;2022-11-15T15:43:43;58.50;;;19.52;;
76196;SDS011;64974;53.144;17.962;2022-11-15T15:46:12;64.70;;;20.65;;
76196;SDS011;64974;53.144;17.962;2022-11-15T15:48:39;61.80;;;20.50;;
76196;SDS011;64974;53.144;17.962;2022-11-15T15:51:05;57.60;;;21.58;;
76196;SDS011;64974;53.144;17.962;2022-11-15T15:53:30;64.32;;;23.02;;
76196;SDS011;64974;53.144;17.962;2022-11-15T15:55:56;68.45;;;25.40;;
76196;SDS011;64974;53.144;17.962;2022-11-15T15:58:22;70.35;;;22.20;;
76196;SDS011;64974;53.144;17.962;2022-11-15T16:00:47;64.90;;;21.63;;
76196;SDS011;64974;53.144;17.962;2022-11-15T16:03:12;62.58;;;22.67;;
76196;SDS011;64974;53.144;17.962;2022-11-15T16:05:38;82.82;;;29.92;;
76196;SDS011;64974;53.144;17.962;2022-11-15T16:08:03;79.72;;;24.25;;
76196;SDS011;64974;53.144;17.962;2022-11-15T16:10:32;72.75;;;27.77;;
76196;SDS011;64974;53.144;17.962;2022-11-15T16:13:01;71.55;;;25.20;;
76196;SDS011;64974;53.144;17.962;2022-11-15T16:15:29;95.07;;;39.13;;
76196;SDS011;64974;53.144;17.962;2022-11-15T16:17:56;71.70;;;29.02;;
76196;SDS011;64974;53.144;17.962;2022-11-15T16:22:57;71.15;;;26.13;;
76196;SDS011;64974;53.144;17.962;2022-11-15T16:25:24;73.43;;;27.45;;
76196;SDS011;64974;53.144;17.962;2022-11-15T16:27:49;84.72;;;34.05;;
76196;SDS011;64974;53.144;17.962;2022-11-15T16:30:16;75.45;;;29.92;;
76196;SDS011;64974;53.144;17.962;2022-11-15T16:32:43;62.80;;;27.35;;
76196;SDS011;64974;53.144;17.962;2022-11-15T16:35:12;59.35;;;23.13;;
76196;SDS011;64974;53.144;17.962;2022-11-15T16:37:38;49.63;;;18.95;;
76196;SDS011;64974;53.144;17.962;2022-11-15T16:40:25;42.75;;;17.45;;
76196;SDS011;64974;53.144;17.962;2022-11-15T16:42:52;48.15;;;18.10;;
76196;SDS011;64974;53.144;17.962;2022-11-15T16:45:17;54.05;;;18.88;;
76196;SDS011;64974;53.144;17.962;2022-11-15T16:47:43;46.67;;;17.92;;
76196;SDS011;64974;53.144;17.962;2022-11-15T16:50:17;54.03;;;18.92;;
76196;SDS011;64974;53.144;17.962;2022-11-15T16:52:48;49.72;;;19.55;;
76196;SDS011;64974;53.144;17.962;2022-11-15T16:55:14;43.70;;;17.30;;
76196;SDS011;64974;53.144;17.962;2022-11-15T16:57:40;46.53;;;18.30;;
76196;SDS011;64974;53.144;17.962;2022-11-15T17:00:05;52.10;;;18.88;;
76196;SDS011;64974;53.144;17.962;2022-11-15T17:02:31;58.97;;;20.90;;
76196;SDS011;64974;53.144;17.962;2022-11-15T17:07:23;90.70;;;33.75;;
76196;SDS011;64974;53.144;17.962;2022-11-15T17:09:49;90.32;;;35.33;;
76196;SDS011;64974;53.144;17.962;2022-11-15T17:12:14;118.93;;;37.42;;
76196;SDS011;64974;53.144;17.962;2022-11-15T17:17:07;152.23;;;48.77;;
76196;SDS011;64974;53.144;17.962;2022-11-15T17:19:33;154.18;;;46.28;;
76196;SDS011;64974;53.144;17.962;2022-11-15T17:21:59;138.00;;;45.10;;
76196;SDS011;64974;53.144;17.962;2022-11-15T17:24:24;105.85;;;37.78;;
76196;SDS011;64974;53.144;17.962;2022-11-15T17:26:50;63.03;;;20.80;;
76196;SDS011;64974;53.144;17.962;2022-11-15T17:29:15;72.72;;;25.35;;
76196;SDS011;64974;53.144;17.962;2022-11-15T17:31:41;83.07;;;29.23;;
76196;SDS011;64974;53.144;17.962;2022-11-15T17:34:06;71.57;;;24.38;;
76196;SDS011;64974;53.144;17.962;2022-11-15T17:36:32;65.07;;;22.85;;
76196;SDS011;64974;53.144;17.962;2022-11-15T17:38:58;60.85;;;24.65;;
76196;SDS011;64974;53.144;17.962;2022-11-15T17:41:23;84.75;;;28.73;;
76196;SDS011;64974;53.144;17.962;2022-11-15T17:43:48;74.18;;;27.73;;
76196;SDS011;64974;53.144;17.962;2022-11-15T17:46:17;62.63;;;21.83;;
76196;SDS011;64974;53.144;17.962;2022-11-15T17:48:45;61.22;;;20.77;;
76196;SDS011;64974;53.144;17.962;2022-11-15T17:51:11;46.38;;;18.35;;
76196;SDS011;64974;53.144;17.962;2022-11-15T17:53:39;44.95;;;16.10;;
76196;SDS011;64974;53.144;17.962;2022-11-15T17:56:06;50.53;;;18.35;;
76196;SDS011;64974;53.144;17.962;2022-11-15T17:58:34;50.92;;;17.77;;
76196;SDS011;64974;53.144;17.962;2022-11-15T18:03:32;51.30;;;19.23;;
76196;SDS011;64974;53.144;17.962;2022-11-15T18:05:59;53.10;;;16.63;;
76196;SDS011;64974;53.144;17.962;2022-11-15T18:08:24;51.63;;;17.23;;
76196;SDS011;64974;53.144;17.962;2022-11-15T18:10:49;52.25;;;17.77;;
76196;SDS011;64974;53.144;17.962;2022-11-15T18:13:15;49.17;;;17.88;;
76196;SDS011;64974;53.144;17.962;2022-11-15T18:15:40;50.63;;;17.70;;
76196;SDS011;64974;53.144;17.962;2022-11-15T18:18:06;48.22;;;15.65;;
76196;SDS011;64974;53.144;17.962;2022-11-15T18:20:31;38.80;;;14.98;;
76196;SDS011;64974;53.144;17.962;2022-11-15T18:22:56;45.35;;;14.90;;
76196;SDS011;64974;53.144;17.962;2022-11-15T18:25:22;46.78;;;18.30;;
76196;SDS011;64974;53.144;17.962;2022-11-15T18:27:49;44.63;;;19.45;;
76196;SDS011;64974;53.144;17.962;2022-11-15T18:30:19;42.10;;;16.08;;
76196;SDS011;64974;53.144;17.962;2022-11-15T18:32:44;46.78;;;17.42;;
76196;SDS011;64974;53.144;17.962;2022-11-15T18:35:10;46.88;;;16.90;;
76196;SDS011;64974;53.144;17.962;2022-11-15T18:37:35;48.50;;;19.65;;
76196;SDS011;64974;53.144;17.962;2022-11-15T18:40:00;44.30;;;17.60;;
76196;SDS011;64974;53.144;17.962;2022-11-15T18:42:26;50.30;;;20.17;;
76196;SDS011;64974;53.144;17.962;2022-11-15T18:44:51;42.58;;;19.05;;
76196;SDS011;64974;53.144;17.962;2022-11-15T18:47:17;48.00;;;18.65;;
76196;SDS011;64974;53.144;17.962;2022-11-15T18:49:42;42.65;;;16.23;;
76196;SDS011;64974;53.144;17.962;2022-11-15T18:52:08;43.33;;;16.90;;
76196;SDS011;64974;53.144;17.962;2022-11-15T18:54:33;47.10;;;17.00;;
76196;SDS011;64974;53.144;17.962;2022-11-15T18:56:59;37.70;;;14.35;;
76196;SDS011;64974;53.144;17.962;2022-11-15T18:59:24;32.47;;;14.45;;
76196;SDS011;64974;53.144;17.962;2022-11-15T19:01:51;35.00;;;13.23;;
76196;SDS011;64974;53.144;17.962;2022-11-15T19:04:17;38.10;;;15.43;;
76196;SDS011;64974;53.144;17.962;2022-11-15T19:06:44;45.33;;;14.93;;
76196;SDS011;64974;53.144;17.962;2022-11-15T19:09:12;34.15;;;13.13;;
76196;SDS011;64974;53.144;17.962;2022-11-15T19:11:39;33.08;;;12.43;;
76196;SDS011;64974;53.144;17.962;2022-11-15T19:14:06;36.25;;;12.90;;
76196;SDS011;64974;53.144;17.962;2022-11-15T19:16:39;39.15;;;13.50;;
76196;SDS011;64974;53.144;17.962;2022-11-15T19:19:11;41.67;;;14.70;;
76196;SDS011;64974;53.144;17.962;2022-11-15T19:21:38;36.83;;;13.38;;
76196;SDS011;64974;53.144;17.962;2022-11-15T19:24:03;40.28;;;13.32;;
76196;SDS011;64974;53.144;17.962;2022-11-15T19:26:29;40.03;;;13.68;;
76196;SDS011;64974;53.144;17.962;2022-11-15T19:28:59;38.03;;;15.00;;
76196;SDS011;64974;53.144;17.962;2022-11-15T19:31:26;34.28;;;12.68;;
76196;SDS011;64974;53.144;17.962;2022-11-15T19:33:52;37.60;;;13.52;;
76196;SDS011;64974;53.144;17.962;2022-11-15T19:36:19;34.90;;;12.25;;
76196;SDS011;64974;53.144;17.962;2022-11-15T19:38:50;40.17;;;14.95;;
76196;SDS011;64974;53.144;17.962;2022-11-15T19:41:17;33.95;;;13.75;;
76196;SDS011;64974;53.144;17.962;2022-11-15T19:43:44;31.52;;;13.13;;
76196;SDS011;64974;53.144;17.962;2022-11-15T19:46:12;31.92;;;11.95;;
76196;SDS011;64974;53.144;17.962;2022-11-15T19:48:38;38.10;;;12.25;;
76196;SDS011;64974;53.144;17.962;2022-11-15T19:51:04;37.75;;;14.32;;
76196;SDS011;64974;53.144;17.962;2022-11-15T19:53:30;37.58;;;13.30;;
76196;SDS011;64974;53.144;17.962;2022-11-15T19:55:58;34.58;;;12.30;;
76196;SDS011;64974;53.144;17.962;2022-11-15T19:58:25;35.72;;;13.70;;
76196;SDS011;64974;53.144;17.962;2022-11-15T20:00:52;39.05;;;12.85;;
76196;SDS011;64974;53.144;17.962;2022-11-15T20:03:23;37.35;;;12.73;;
76196;SDS011;64974;53.144;17.962;2022-11-15T20:05:48;38.15;;;13.40;;
76196;SDS011;64974;53.144;17.962;2022-11-15T20:08:14;33.95;;;12.75;;
76196;SDS011;64974;53.144;17.962;2022-11-15T20:10:39;37.55;;;15.00;;
76196;SDS011;64974;53.144;17.962;2022-11-15T20:13:07;43.50;;;14.43;;
76196;SDS011;64974;53.144;17.962;2022-11-15T20:15:36;45.38;;;16.15;;
76196;SDS011;64974;53.144;17.962;2022-11-15T20:18:02;44.58;;;16.05;;
76196;SDS011;64974;53.144;17.962;2022-11-15T20:20:29;35.15;;;12.85;;